Latest Weather Observations for Dartmoor

IDV60801

Issued at 11:35 am EST Sunday 21 September 2014 (issued every 30 minutes, with the page automatically refreshed every 10 minutes)

About weather observations | Map of weather stations | Latest weather observations for VIC | Other Formats
Station Details ID: 090194 Name: DARTMOOR Lat: -37.92 Lon: 141.26 Height: 51.0 m
Data from the previous 72 hours. | See also: Recent months at Dartmoor
Date/Time
EST
Temp
°C
App
Temp
°C
Dew
Point
Rel
Hum
%
Delta-T
°C
Wind Press
QNH
hPa
Press
MSL
hPa
Rain
since 9 am
mm
Dir
 
Spd
km/h
Gust
km/h
Spd
kts
Gust
kts
21/11:30am 14.6 12.1 8.3 66 3.1 ESE 11 19 6 10 1032.1 1032.1 0.0
21/11:00am 14.3 11.8 8.0 66 3.1 E 11 20 6 11 1032.6 1032.6 0.0
21/10:30am 13.7 11.1 7.9 68 2.8 E 11 20 6 11 1032.8 1032.8 0.0
21/10:00am 13.0 11.6 8.7 75 2.1 ENE 6 9 3 5 1032.7 1032.7 0.0
21/09:30am 11.0 11.3 11.0 100 0.0 CALM 0 0 0 0 1032.7 1032.7 0.0
21/09:00am 8.0 7.5 8.0 100 0.0 CALM 0 0 0 0 1032.7 1032.7 0.2
21/08:30am 6.1 5.2 6.1 100 0.0 CALM 0 0 0 0 1032.5 1032.5 0.2
21/08:00am 3.5 2.1 3.5 100 0.0 CALM 0 0 0 0 1031.8 1031.8 0.2
21/07:30am 0.4 -1.5 0.4 100 0.0 CALM 0 0 0 0 1031.6 1031.6 0.2
21/07:00am -0.4 -2.4 -0.4 100 0.0 CALM 0 0 0 0 1031.3 1031.3 0.2
21/06:30am -0.6 -2.7 -0.6 100 0.0 CALM 0 0 0 0 1031.2 1031.2 0.2
21/06:00am 0.2 -1.8 0.2 100 0.0 SE 0 0 0 0 1030.8 1030.8 0.2
21/05:30am 0.2 -1.8 0.2 100 0.0 CALM 0 0 0 0 1030.6 1030.6 0.2
21/05:00am 0.4 -1.5 0.4 100 0.0 CALM 0 0 0 0 1030.5 1030.5 0.2
21/04:30am 0.4 -1.5 0.4 100 0.0 CALM 0 0 0 0 1030.3 1030.3 0.2
21/04:00am 0.9 -0.9 0.9 100 0.0 CALM 0 0 0 0 1030.4 1030.4 0.2
21/03:30am 1.4 -0.4 1.4 100 0.0 CALM 0 0 0 0 1030.4 1030.4 0.2
21/03:00am 1.7 0.0 1.7 100 0.0 CALM 0 0 0 0 1030.5 1030.5 0.2
21/02:30am 1.8 0.1 1.8 100 0.0 CALM 0 0 0 0 1030.5 1030.5 0.2
21/02:00am 2.1 0.4 2.1 100 0.0 CALM 0 0 0 0 1030.8 1030.8 0.2
21/01:30am 2.3 0.7 2.3 100 0.0 CALM 0 0 0 0 1031.0 1031.0 0.2
21/01:00am 2.7 1.1 2.7 100 0.0 CALM 0 0 0 0 1031.1 1031.1 0.2
21/12:30am 3.5 2.1 3.5 100 0.0 CALM 0 0 0 0 1031.1 1031.1 0.2
21/12:00am 2.9 1.4 2.9 100 0.0 SSW 0 0 0 0 1031.0 1031.0 0.2
 
Date/Time
EST
Temp
°C
App
Temp
°C
Dew
Point
Rel
Hum
%
Delta-T
°C
Wind Press
QNH
hPa
Press
MSL
hPa
Rain
since 9 am
mm
Dir
 
Spd
km/h
Gust
km/h
Spd
kts
Gust
kts
20/11:30pm 4.2 2.9 4.2 100 0.0 CALM 0 0 0 0 1030.9 1030.9 0.2
20/11:00pm 4.2 2.9 4.2 100 0.0 CALM 0 0 0 0 1031.0 1031.0 0.2
20/10:30pm 4.2 2.9 4.1 99 0.0 CALM 0 0 0 0 1030.9 1030.9 0.2
20/10:00pm 5.1 3.9 4.8 98 0.1 CALM 0 0 0 0 1030.9 1030.9 0.2
20/09:30pm 5.6 4.4 4.7 94 0.4 SE 0 0 0 0 1030.8 1030.8 0.2
20/09:00pm 6.5 5.2 4.2 85 1.0 CALM 0 2 0 1 1030.6 1030.6 0.2
20/08:30pm 7.7 5.4 5.0 83 1.2 SE 6 7 3 4 1030.7 1030.7 0.2
20/08:00pm 8.8 6.7 5.7 81 1.4 SE 6 7 3 4 1030.6 1030.6 0.2
20/07:30pm 8.7 6.0 5.6 81 1.4 SE 9 13 5 7 1030.4 1030.4 0.2
20/07:00pm 9.2 6.2 5.8 79 1.5 SE 11 13 6 7 1030.1 1030.1 0.2
20/06:30pm 10.6 6.9 6.2 74 2.1 SE 15 20 8 11 1029.8 1029.8 0.2
20/06:00pm 12.2 9.0 6.9 70 2.5 SE 13 17 7 9 1029.6 1029.6 0.2
20/05:30pm 13.6 10.5 7.4 66 3.0 SSE 13 17 7 9 1029.2 1029.2 0.2
20/05:00pm 14.1 10.6 7.4 64 3.3 SSE 15 22 8 12 1028.9 1028.9 0.2
20/04:30pm 14.7 10.4 7.0 60 3.8 SSE 19 24 10 13 1028.5 1028.5 0.2
20/04:00pm 15.3 11.0 7.8 61 3.7 S 20 30 11 16 1028.3 1028.3 0.2
20/03:30pm 14.9 11.1 7.7 62 3.6 S 17 24 9 13 1028.1 1028.2 0.2
20/03:00pm 14.9 11.3 8.2 64 3.3 S 17 20 9 11 1028.1 1028.2 0.2
20/02:30pm 14.8 11.2 8.3 65 3.3 SSW 17 22 9 12 1028.3 1028.3 0.2
20/02:00pm 15.7 13.3 7.0 56 4.3 SE 9 19 5 10 1028.1 1028.2 0.2
20/01:30pm 15.5 13.1 7.0 57 4.2 S 9 13 5 7 1028.3 1028.3 0.2
20/01:00pm 15.5 13.7 7.0 57 4.2 S 6 9 3 5 1028.3 1028.3 0.2
20/12:30pm 15.3 13.1 6.3 55 4.4 SE 7 17 4 9 1028.6 1028.6 0.2
20/12:00pm 14.9 12.8 6.7 58 4.0 ESE 7 11 4 6 1028.7 1028.7 0.0
20/11:30am 15.0 13.5 8.5 65 3.3 ESE 6 13 3 7 1028.8 1028.8 0.0
20/11:00am 14.7 12.6 6.8 59 3.8 ESE 7 15 4 8 1029.0 1029.0 0.0
20/10:30am 14.2 12.7 9.2 72 2.6 ENE 7 13 4 7 1029.1 1029.1 0.0
20/10:00am 13.2 12.2 8.9 75 2.2 ENE 4 7 2 4 1029.5 1029.5 0.0
20/09:30am 11.9 12.5 11.9 100 0.0 CALM 0 0 0 0 1029.6 1029.6 0.0
20/09:00am 9.1 8.9 9.1 100 0.0 CALM 0 0 0 0 1029.5 1029.5 0.0
20/08:30am 6.5 5.7 6.5 100 0.0 CALM 0 0 0 0 1029.5 1029.5 0.0
20/08:00am 3.8 2.4 3.8 100 0.0 CALM 0 0 0 0 1029.1 1029.1 0.0
20/07:30am 1.3 -0.5 1.3 100 0.0 CALM 0 0 0 0 1028.6 1028.6 0.0
20/07:00am -0.3 -2.3 -0.3 100 0.0 CALM 0 0 0 0 1028.3 1028.3 0.0
20/06:30am -0.8 -2.9 -0.8 100 0.0 CALM 0 0 0 0 1028.0 1028.1 0.0
20/06:00am -0.5 -2.6 -0.5 100 0.0 CALM 0 0 0 0 1027.5 1027.6 0.0
20/05:30am -0.1 -2.1 -0.1 100 0.0 CALM 0 0 0 0 1027.2 1027.3 0.0
20/05:00am -0.1 -2.1 -0.1 100 0.0 CALM 0 0 0 0 1026.9 1027.0 0.0
20/04:30am 0.6 -1.3 0.6 100 0.0 CALM 0 0 0 0 1026.6 1026.7 0.0
20/04:00am 0.9 -0.9 0.9 100 0.0 CALM 0 0 0 0 1026.4 1026.5 0.0
20/03:30am 0.9 -0.9 0.9 100 0.0 CALM 0 0 0 0 1026.3 1026.4 0.0
20/03:00am 1.1 -0.7 1.1 100 0.0 CALM 0 0 0 0 1026.1 1026.2 0.0
20/02:30am 1.4 -0.4 1.4 100 0.0 CALM 0 0 0 0 1026.2 1026.3 0.0
20/02:00am 2.0 0.3 2.0 100 0.0 CALM 0 0 0 0 1026.1 1026.2 0.0
20/01:30am 2.0 0.3 2.0 100 0.0 CALM 0 0 0 0 1026.5 1026.6 0.0
20/01:00am 2.1 0.4 2.1 100 0.0 CALM 0 0 0 0 1026.7 1026.8 0.0
20/12:30am 2.5 0.9 2.5 100 0.0 CALM 0 0 0 0 1026.6 1026.7 0.0
20/12:00am 3.4 2.0 3.4 100 0.0 CALM 0 0 0 0 1026.6 1026.7 0.0
 
Date/Time
EST
Temp
°C
App
Temp
°C
Dew
Point
Rel
Hum
%
Delta-T
°C
Wind Press
QNH
hPa
Press
MSL
hPa
Rain
since 9 am
mm
Dir
 
Spd
km/h
Gust
km/h
Spd
kts
Gust
kts
19/11:30pm 3.5 2.1 3.5 100 0.0 CALM 0 0 0 0 1026.6 1026.7 0.0
19/11:00pm 4.0 2.7 4.0 100 0.0 CALM 0 0 0 0 1026.7 1026.8 0.0
19/10:30pm 4.5 3.3 4.5 100 0.0 CALM 0 0 0 0 1026.6 1026.7 0.0
19/10:00pm 4.9 3.8 4.9 100 0.0 CALM 0 0 0 0 1026.6 1026.7 0.0
19/09:30pm 5.2 4.1 5.2 100 0.0 CALM 0 0 0 0 1026.9 1027.0 0.0
19/09:00pm 6.1 5.2 6.1 100 0.0 CALM 0 0 0 0 1027.0 1027.1 0.0
19/08:30pm 6.7 5.9 6.6 99 0.0 CALM 0 0 0 0 1026.8 1026.9 0.0
19/08:00pm 7.0 6.2 6.4 96 0.3 CALM 0 0 0 0 1026.7 1026.8 0.0
19/07:30pm 8.3 6.9 7.4 94 0.4 S 4 4 2 2 1026.6 1026.7 0.0
19/07:00pm 9.0 6.9 6.6 85 1.1 SSW 7 9 4 5 1026.2 1026.3 0.0
19/06:30pm 10.4 8.4 7.1 80 1.6 SSW 7 9 4 5 1026.1 1026.2 0.0
19/06:00pm 11.8 9.0 6.9 72 2.3 SSW 11 17 6 9 1025.8 1025.9 0.0
19/05:30pm 12.7 9.1 6.7 67 2.9 SSW 15 20 8 11 1025.7 1025.8 0.0
19/05:00pm 13.2 9.7 7.0 66 3.0 SW 15 20 8 11 1025.4 1025.5 0.0
19/04:30pm 13.4 9.6 7.4 67 2.9 SSW 17 20 9 11 1025.2 1025.3 0.0
19/04:00pm 13.6 9.8 7.4 66 3.0 SW 17 24 9 13 1025.2 1025.3 0.0
19/03:30pm 14.8 11.5 8.1 64 3.4 SW 15 22 8 12 1025.0 1025.1 0.0
19/03:00pm 13.4 9.9 7.0 65 3.1 SW 15 19 8 10 1025.1 1025.2 0.0
19/02:30pm 14.3 12.8 6.9 61 3.6 S 4 11 2 6 1025.1 1025.2 0.0
19/02:00pm 13.6 11.2 7.2 65 3.1 WSW 9 13 5 7 1025.2 1025.3 0.0
19/01:30pm 13.7 11.9 7.9 68 2.9 S 7 13 4 7 1025.4 1025.5 0.0
19/01:00pm 13.4 10.7 7.4 67 2.9 SSW 11 15 6 8 1025.7 1025.8 0.0
19/12:30pm 13.7 13.0 8.5 71 2.6 SW 2 7 1 4 1025.9 1026.0 0.0
19/12:00pm 12.8 11.2 8.7 76 2.0 WSW 7 15 4 8 1026.3 1026.4 0.0
19/11:30am 12.9 11.2 8.4 74 2.2 SW 7 13 4 7 1026.5 1026.6 0.0
19/11:00am 13.5 12.0 9.0 74 2.3 S 7 13 4 7 1026.6 1026.7 0.0
19/10:30am 12.1 12.4 12.1 100 0.0 W 2 9 1 5 1026.9 1027.0 0.0
19/10:00am 10.3 10.4 10.3 100 0.0 CALM 0 4 0 2 1027.2 1027.3 0.0
19/09:30am 7.8 7.3 7.8 100 0.0 CALM 0 0 0 0 1027.2 1027.3 0.0
19/09:00am 6.9 6.2 6.9 100 0.0 CALM 0 0 0 0 1027.0 1027.1 0.0
19/08:30am 5.5 3.7 5.5 100 0.0 SW 4 9 2 5 1027.1 1027.2 0.0
19/08:00am 3.2 1.7 3.2 100 0.0 CALM 0 0 0 0 1026.7 1026.8 0.0
19/07:30am 1.7 0.0 1.7 100 0.0 CALM 0 0 0 0 1026.7 1026.8 0.0
19/07:00am 0.6 -1.3 0.6 100 0.0 CALM 0 0 0 0 1026.5 1026.6 0.0
19/06:30am 0.2 -1.8 0.2 100 0.0 CALM 0 0 0 0 1026.4 1026.5 0.0
19/06:00am -0.4 -2.4 -0.4 100 0.0 CALM 0 0 0 0 1026.2 1026.3 0.0
19/05:30am 0.5 -1.4 0.5 100 0.0 CALM 0 0 0 0 1025.8 1025.9 0.0
19/05:00am 0.4 -1.5 0.4 100 0.0 CALM 0 0 0 0 1025.8 1025.9 0.0
19/04:30am 0.3 -1.6 0.3 100 0.0 CALM 0 0 0 0 1025.5 1025.6 0.0
19/04:00am 0.6 -1.3 0.6 100 0.0 CALM 0 0 0 0 1025.6 1025.7 0.0
19/03:30am 0.9 -0.9 0.9 100 0.0 CALM 0 0 0 0 1025.5 1025.6 0.0
19/03:00am 1.4 -0.4 1.4 100 0.0 CALM 0 0 0 0 1025.6 1025.7 0.0
19/02:30am 1.7 0.0 1.7 100 0.0 CALM 0 0 0 0 1025.7 1025.8 0.0
19/02:00am 1.7 0.0 1.7 100 0.0 CALM 0 0 0 0 1025.9 1026.0 0.0
19/01:30am 2.2 0.6 2.2 100 0.0 CALM 0 0 0 0 1026.2 1026.3 0.0
19/01:00am 2.6 1.0 2.6 100 0.0 CALM 0 0 0 0 1026.3 1026.4 0.0
19/12:30am 2.9 1.4 2.9 100 0.0 CALM 0 0 0 0 1026.3 1026.4 0.0
19/12:00am 3.5 2.1 3.5 100 0.0 CALM 0 0 0 0 1026.3 1026.4 0.0
 
Date/Time
EST
Temp
°C
App
Temp
°C
Dew
Point
Rel
Hum
%
Delta-T
°C
Wind Press
QNH
hPa
Press
MSL
hPa
Rain
since 9 am
mm
Dir
 
Spd
km/h
Gust
km/h
Spd
kts
Gust
kts
18/11:30pm 4.0 2.7 4.0 100 0.0 CALM 0 0 0 0 1026.5 1026.6 0.0
18/11:00pm 4.2 2.9 4.2 100 0.0 CALM 0 0 0 0 1026.6 1026.7 0.0
18/10:30pm 4.1 2.8 4.1 100 0.0 CALM 0 0 0 0 1026.8 1026.9 0.0
18/10:00pm 4.4 3.2 4.4 100 0.0 CALM 0 0 0 0 1026.7 1026.8 0.0
18/09:30pm 4.9 3.8 4.9 100 0.0 CALM 0 0 0 0 1026.7 1026.8 0.0
18/09:00pm 5.2 4.1 5.2 100 0.0 CALM 0 0 0 0 1026.5 1026.6 0.0
18/08:30pm 6.1 5.2 6.0 99 0.0 CALM 0 0 0 0 1026.2 1026.3 0.0
18/08:00pm 6.7 5.9 6.4 98 0.1 CALM 0 0 0 0 1026.1 1026.2 0.0
18/07:30pm 7.6 6.0 6.5 93 0.5 SSW 4 4 2 2 1026.0 1026.1 0.0
18/07:00pm 7.7 5.8 6.5 92 0.5 S 6 7 3 4 1025.7 1025.8 0.0
18/06:30pm 9.1 7.0 6.5 84 1.2 SSW 7 11 4 6 1025.7 1025.8 0.0
18/06:00pm 10.7 8.3 7.0 78 1.7 SSW 9 15 5 8 1025.5 1025.6 0.0
18/05:30pm 11.5 9.1 7.0 74 2.2 SSW 9 15 5 8 1025.4 1025.5 0.0
18/05:00pm 11.4 7.5 6.9 74 2.1 SSW 17 22 9 12 1025.1 1025.2 0.0
18/04:30pm 12.2 9.2 7.7 74 2.2 SW 13 19 7 10 1024.9 1025.0 0.0
18/04:00pm 12.7 9.3 7.6 71 2.5 SSW 15 24 8 13 1024.7 1024.8 0.0
18/03:30pm 13.3 9.7 8.2 71 2.5 SW 17 24 9 13 1024.7 1024.8 0.0
18/03:00pm 13.2 9.4 7.6 69 2.7 S 17 22 9 12 1024.7 1024.8 0.0
18/02:30pm 12.8 8.9 7.3 69 2.7 SSW 17 22 9 12 1024.8 1024.9 0.0
18/02:00pm 13.4 9.1 7.0 65 3.1 S 19 28 10 15 1024.7 1024.8 0.0
18/01:30pm 13.1 10.6 8.2 72 2.4 SSW 11 17 6 9 1024.8 1024.9 0.0
18/01:00pm 12.9 8.8 8.0 72 2.4 SSW 19 28 10 15 1024.9 1025.0 0.0
18/12:30pm 11.8 8.6 8.6 81 1.6 SW 15 22 8 12 1025.1 1025.2 0.0
18/12:00pm 11.5 8.1 7.8 78 1.8 SSW 15 20 8 11 1025.1 1025.2 0.0

Other Formats:

Comma delimited format used in spreadsheet applications
http://www.bom.gov.au/fwo/IDV60801/IDV60801.95822.axf

JavaScript Object Notation format (JSON) in row-major order
http://www.bom.gov.au/fwo/IDV60801/IDV60801.95822.json